createdAt,value
2022-10-22T00:02:27.836Z,21.40
2022-10-22T00:04:56.968Z,21.40
2022-10-22T00:07:24.091Z,21.40
2022-10-22T00:09:51.239Z,21.40
2022-10-22T00:12:18.281Z,21.40
2022-10-22T00:14:45.230Z,21.40
2022-10-22T00:17:12.101Z,21.40
2022-10-22T00:19:39.880Z,21.40
2022-10-22T00:22:08.550Z,21.40
2022-10-22T00:24:36.784Z,21.40
2022-10-22T00:27:03.908Z,21.40
2022-10-22T00:29:31.480Z,21.40
2022-10-22T00:31:58.310Z,21.40
2022-10-22T00:34:25.463Z,21.40
2022-10-22T00:36:52.965Z,21.40
2022-10-22T00:39:22.315Z,21.40
2022-10-22T00:41:51.169Z,21.40
2022-10-22T00:44:55.546Z,21.40
2022-10-22T00:47:24.148Z,21.40
2022-10-22T00:49:52.869Z,21.40
2022-10-22T00:52:20.223Z,21.40
2022-10-22T00:54:47.272Z,21.40
2022-10-22T00:57:15.332Z,21.30
2022-10-22T00:59:42.657Z,21.40
2022-10-22T01:02:09.439Z,21.30
2022-10-22T01:04:36.252Z,21.30
2022-10-22T01:07:03.480Z,21.30
2022-10-22T01:09:36.229Z,21.30
2022-10-22T01:12:34.303Z,21.30
2022-10-22T01:15:28.836Z,21.20
2022-10-22T01:18:19.486Z,21.20
2022-10-22T01:20:58.729Z,21.20
2022-10-22T01:23:37.403Z,21.20
2022-10-22T01:26:31.216Z,21.20
2022-10-22T01:29:21.693Z,21.10
2022-10-22T01:32:01.234Z,21.10
2022-10-22T01:34:30.006Z,21.10
2022-10-22T01:36:59.229Z,21.10
2022-10-22T01:39:28.771Z,21.00
2022-10-22T01:41:56.605Z,21.00
2022-10-22T01:44:30.731Z,21.00
2022-10-22T01:47:19.239Z,20.90
2022-10-22T01:50:04.678Z,20.90
2022-10-22T01:52:50.271Z,20.90
2022-10-22T01:55:28.992Z,20.90
2022-10-22T01:58:12.793Z,20.90
2022-10-22T02:00:47.058Z,20.90
2022-10-22T02:03:24.437Z,20.80
2022-10-22T02:05:58.747Z,20.80
2022-10-22T02:08:30.899Z,20.80
2022-10-22T02:10:59.791Z,20.80
2022-10-22T02:13:40.506Z,20.80
2022-10-22T02:16:09.441Z,20.80
2022-10-22T02:18:40.362Z,20.70
2022-10-22T02:23:39.836Z,20.70
2022-10-22T02:26:14.654Z,20.70
2022-10-22T02:29:16.445Z,20.60
2022-10-22T02:31:45.520Z,20.60
2022-10-22T02:34:16.468Z,20.60
2022-10-22T02:36:48.093Z,20.60
2022-10-22T02:39:18.989Z,20.60
2022-10-22T02:41:45.787Z,20.60
2022-10-22T02:44:12.568Z,20.60
2022-10-22T02:46:40.403Z,20.60
2022-10-22T02:49:07.454Z,20.60
2022-10-22T02:51:34.829Z,20.60
2022-10-22T02:54:01.803Z,20.60
2022-10-22T02:56:28.992Z,20.60
2022-10-22T02:58:55.820Z,20.60
2022-10-22T03:01:23.003Z,20.60
2022-10-22T03:03:50.437Z,20.70
2022-10-22T03:06:18.113Z,20.70
2022-10-22T03:08:45.228Z,20.70
2022-10-22T03:11:12.323Z,20.70
2022-10-22T03:13:39.137Z,20.70
2022-10-22T03:16:06.608Z,20.70
2022-10-22T03:18:33.463Z,20.70
2022-10-22T03:21:12.812Z,20.70
2022-10-22T03:23:42.041Z,20.70
2022-10-22T03:26:10.703Z,20.80
2022-10-22T03:28:39.076Z,20.80
2022-10-22T03:31:06.027Z,20.80
2022-10-22T03:33:32.884Z,20.80
2022-10-22T03:36:00.890Z,20.80
2022-10-22T03:38:28.411Z,20.80
2022-10-22T03:40:55.225Z,20.80
2022-10-22T03:43:22.011Z,20.80
2022-10-22T03:45:48.814Z,20.80
2022-10-22T03:48:15.599Z,20.80
2022-10-22T03:50:42.415Z,20.90
2022-10-22T03:53:10.653Z,20.90
2022-10-22T03:55:38.357Z,20.90
2022-10-22T03:58:05.781Z,20.90
2022-10-22T04:00:33.952Z,20.90
2022-10-22T04:03:00.713Z,20.90
2022-10-22T04:05:27.521Z,21.00
2022-10-22T04:07:54.281Z,21.00
2022-10-22T04:10:21.187Z,21.00
2022-10-22T04:12:48.825Z,21.00
2022-10-22T04:15:16.068Z,21.00
2022-10-22T04:17:43.146Z,21.00
2022-10-22T04:20:10.958Z,21.00
2022-10-22T04:22:38.032Z,21.00
2022-10-22T04:25:05.719Z,21.10
2022-10-22T04:27:33.773Z,21.10
2022-10-22T04:30:00.901Z,21.10
2022-10-22T04:32:28.470Z,21.10
2022-10-22T04:34:55.267Z,21.10
2022-10-22T04:37:22.238Z,21.10
2022-10-22T04:39:49.309Z,21.10
2022-10-22T04:42:16.254Z,21.10
2022-10-22T04:44:43.032Z,21.10
2022-10-22T04:47:09.881Z,21.10
2022-10-22T04:49:36.680Z,21.10
2022-10-22T04:52:03.555Z,21.10
2022-10-22T04:54:33.039Z,21.10
2022-10-22T04:57:00.274Z,21.20
2022-10-22T04:59:27.336Z,21.10
2022-10-22T05:01:54.144Z,21.10
2022-10-22T05:04:20.995Z,21.10
2022-10-22T05:06:48.181Z,21.10
2022-10-22T05:09:17.792Z,21.10
2022-10-22T05:11:48.336Z,21.10
2022-10-22T05:14:21.092Z,21.10
2022-10-22T05:16:48.790Z,21.00
2022-10-22T05:19:19.429Z,21.00
2022-10-22T05:21:46.514Z,21.00
2022-10-22T05:24:13.484Z,21.00
2022-10-22T05:26:40.316Z,21.00
2022-10-22T05:29:07.221Z,21.00
2022-10-22T05:31:34.412Z,20.90
2022-10-22T05:34:01.545Z,21.00
2022-10-22T05:36:28.398Z,20.90
2022-10-22T05:38:55.199Z,20.90
2022-10-22T05:41:24.775Z,21.00
2022-10-22T05:43:54.119Z,20.90
2022-10-22T05:46:23.205Z,20.90
2022-10-22T05:48:57.884Z,20.80
2022-10-22T05:51:25.438Z,20.90
2022-10-22T05:53:54.749Z,20.80
2022-10-22T05:56:22.765Z,20.80
2022-10-22T05:58:49.917Z,20.80
2022-10-22T06:01:22.474Z,20.80
2022-10-22T06:03:49.880Z,20.70
2022-10-22T06:06:34.784Z,20.80
2022-10-22T06:09:14.671Z,20.70
2022-10-22T06:11:41.600Z,20.80
2022-10-22T06:14:09.879Z,20.80
2022-10-22T06:16:36.739Z,20.80
2022-10-22T06:19:04.489Z,20.70
2022-10-22T06:21:32.473Z,20.70
2022-10-22T06:24:00.908Z,20.80
2022-10-22T06:26:28.093Z,20.80
2022-10-22T06:28:56.228Z,20.80
2022-10-22T06:31:23.751Z,20.80
2022-10-22T06:33:50.590Z,20.80
2022-10-22T06:36:23.583Z,20.80
2022-10-22T06:38:54.862Z,20.90
2022-10-22T06:41:25.690Z,20.90
2022-10-22T06:43:57.316Z,20.90
2022-10-22T06:46:24.942Z,20.90
2022-10-22T06:48:57.980Z,20.90
2022-10-22T06:51:26.213Z,20.90
2022-10-22T06:53:54.676Z,21.00
2022-10-22T06:56:24.096Z,21.00
2022-10-22T06:58:52.014Z,21.00
2022-10-22T07:01:22.182Z,21.00
2022-10-22T07:03:51.843Z,21.00
2022-10-22T07:06:19.439Z,20.90
2022-10-22T07:08:46.328Z,21.00
2022-10-22T07:11:19.633Z,20.90
2022-10-22T07:13:47.592Z,21.00
2022-10-22T07:16:15.240Z,21.00
2022-10-22T07:18:42.493Z,21.00
2022-10-22T07:21:11.636Z,20.90
2022-10-22T07:23:38.900Z,20.90
2022-10-22T07:26:09.156Z,20.90
2022-10-22T07:28:39.746Z,21.00
2022-10-22T07:31:10.574Z,20.90
2022-10-22T07:33:38.156Z,20.90
2022-10-22T07:36:07.332Z,20.90
2022-10-22T07:38:35.033Z,20.90
2022-10-22T07:41:02.842Z,20.90
2022-10-22T07:43:29.627Z,21.00
2022-10-22T07:45:56.541Z,21.00
2022-10-22T07:48:23.986Z,21.00
2022-10-22T07:50:51.857Z,21.00
2022-10-22T07:53:19.142Z,21.00
2022-10-22T07:55:49.255Z,21.10
2022-10-22T07:58:17.087Z,21.10
2022-10-22T08:00:44.493Z,21.20
2022-10-22T08:03:12.823Z,21.20
2022-10-22T08:05:40.061Z,21.30
2022-10-22T08:08:07.503Z,21.30
2022-10-22T08:10:34.972Z,21.40
2022-10-22T08:13:01.853Z,21.40
2022-10-22T08:15:28.782Z,21.40
2022-10-22T08:17:55.537Z,21.50
2022-10-22T08:20:22.380Z,21.50
2022-10-22T08:22:49.240Z,21.60
2022-10-22T08:25:18.028Z,21.60
2022-10-22T08:27:45.638Z,21.70
2022-10-22T08:30:13.661Z,21.70
2022-10-22T08:32:41.614Z,21.70
2022-10-22T08:35:08.664Z,21.80
2022-10-22T08:37:36.077Z,21.80
2022-10-22T08:40:04.565Z,21.90
2022-10-22T08:42:52.340Z,21.90
2022-10-22T08:45:27.484Z,21.90
2022-10-22T08:48:15.995Z,22.00
2022-10-22T08:50:47.444Z,22.00
2022-10-22T08:53:48.416Z,22.00
2022-10-22T08:56:16.096Z,22.00
2022-10-22T08:58:50.779Z,22.10
2022-10-22T09:01:42.807Z,22.10
2022-10-22T09:04:17.216Z,22.10
2022-10-22T09:06:44.432Z,22.20
2022-10-22T09:09:19.316Z,22.20
2022-10-22T09:11:53.373Z,22.20
2022-10-22T09:14:22.781Z,22.30
2022-10-22T09:17:04.944Z,22.30
2022-10-22T09:20:13.524Z,22.40
2022-10-22T09:22:54.155Z,22.40
2022-10-22T09:25:27.883Z,22.40
2022-10-22T09:27:58.553Z,22.50
2022-10-22T09:30:29.746Z,22.50
2022-10-22T09:33:02.937Z,22.50
2022-10-22T09:35:35.236Z,22.60
2022-10-22T09:38:08.238Z,22.60
2022-10-22T09:40:51.186Z,22.60
2022-10-22T09:43:18.892Z,22.70
2022-10-22T09:45:46.976Z,22.70
2022-10-22T09:48:26.405Z,22.70
2022-10-22T09:51:00.612Z,22.80
2022-10-22T09:53:30.425Z,22.80
2022-10-22T09:56:05.995Z,22.80
2022-10-22T09:58:43.240Z,22.90
2022-10-22T10:01:17.955Z,22.90
2022-10-22T10:03:44.714Z,23.00
2022-10-22T10:06:12.609Z,23.00
2022-10-22T10:08:39.718Z,23.10
2022-10-22T10:11:16.072Z,23.10
2022-10-22T10:13:52.761Z,23.10
2022-10-22T10:17:01.199Z,23.10
2022-10-22T10:19:45.385Z,23.20
2022-10-22T10:22:32.691Z,23.20
2022-10-22T10:25:10.132Z,23.20
2022-10-22T10:27:44.237Z,23.20
2022-10-22T10:30:23.898Z,23.20
2022-10-22T10:33:23.569Z,23.20
2022-10-22T10:35:56.873Z,23.20
2022-10-22T10:38:42.031Z,23.30
2022-10-22T10:41:23.900Z,23.30
2022-10-22T10:43:59.829Z,23.30
2022-10-22T10:46:37.096Z,23.30
2022-10-22T10:49:18.681Z,23.30
2022-10-22T10:52:10.580Z,23.30
2022-10-22T10:55:18.769Z,23.30
2022-10-22T10:57:51.820Z,23.40
2022-10-22T11:00:20.541Z,23.40
2022-10-22T11:03:18.268Z,23.40
2022-10-22T11:05:55.414Z,23.40
2022-10-22T11:08:38.906Z,23.40
2022-10-22T11:11:08.246Z,23.40
2022-10-22T11:13:41.026Z,23.40
2022-10-22T11:16:19.213Z,23.30
2022-10-22T11:18:52.080Z,23.30
2022-10-22T11:21:47.100Z,23.40
2022-10-22T11:24:25.772Z,23.40
2022-10-22T11:27:03.759Z,23.40
2022-10-22T11:29:39.907Z,23.40
2022-10-22T11:32:14.411Z,23.40
2022-10-22T11:34:54.259Z,23.40
2022-10-22T11:37:24.183Z,23.40
2022-10-22T11:39:53.894Z,23.50
2022-10-22T11:42:44.076Z,23.50
2022-10-22T11:45:13.999Z,23.50
2022-10-22T11:47:52.856Z,23.50
2022-10-22T11:50:56.759Z,23.50
2022-10-22T11:53:36.364Z,23.50
2022-10-22T11:56:13.065Z,23.50
2022-10-22T11:58:42.097Z,23.60
2022-10-22T12:01:08.822Z,23.60
2022-10-22T12:03:37.906Z,23.60
2022-10-22T12:06:15.656Z,23.60
2022-10-22T12:09:04.808Z,23.60
2022-10-22T12:11:47.703Z,23.60
2022-10-22T12:14:29.762Z,23.60
2022-10-22T12:17:08.685Z,23.60
2022-10-22T12:19:43.134Z,23.70
2022-10-22T12:22:27.194Z,23.70
2022-10-22T12:24:57.720Z,23.70
2022-10-22T12:27:39.803Z,23.70
2022-10-22T12:30:27.728Z,23.70
2022-10-22T12:33:00.524Z,23.70
2022-10-22T12:35:47.599Z,23.70
2022-10-22T12:38:17.525Z,23.70
2022-10-22T12:40:47.722Z,23.70
2022-10-22T12:43:18.438Z,23.80
2022-10-22T12:45:48.540Z,23.80
2022-10-22T12:48:39.245Z,23.80
2022-10-22T12:51:11.029Z,23.80
2022-10-22T12:53:43.249Z,23.80
2022-10-22T12:56:37.432Z,23.80
2022-10-22T12:59:22.332Z,23.80
2022-10-22T13:01:50.707Z,23.90
2022-10-22T13:04:20.474Z,23.80
2022-10-22T13:07:03.229Z,23.90
2022-10-22T13:09:39.497Z,23.80
2022-10-22T13:12:10.646Z,23.80
2022-10-22T13:14:38.675Z,23.80
2022-10-22T13:17:14.769Z,23.80
2022-10-22T13:19:49.008Z,23.80
2022-10-22T13:22:29.003Z,23.80
2022-10-22T13:27:28.531Z,23.80
2022-10-22T13:29:57.241Z,23.80
2022-10-22T13:32:29.672Z,23.70
2022-10-22T13:35:02.211Z,23.70
2022-10-22T13:37:31.804Z,23.70
2022-10-22T13:39:58.741Z,23.70
2022-10-22T13:42:25.690Z,23.70
2022-10-22T13:44:52.448Z,23.70
2022-10-22T13:47:27.040Z,23.70
2022-10-22T13:49:59.351Z,23.70
2022-10-22T13:52:50.425Z,23.70
2022-10-22T13:55:19.976Z,23.70
2022-10-22T13:57:47.420Z,23.70
2022-10-22T14:00:17.226Z,23.70
2022-10-22T14:02:45.852Z,23.70
2022-10-22T14:05:13.074Z,23.70
2022-10-22T14:07:40.235Z,23.60
2022-10-22T14:10:17.915Z,23.60
2022-10-22T14:12:47.332Z,23.60
2022-10-22T14:15:18.411Z,23.60
2022-10-22T14:17:49.623Z,23.60
2022-10-22T14:20:20.936Z,23.60
2022-10-22T14:22:49.573Z,23.60
2022-10-22T14:25:18.176Z,23.60
2022-10-22T14:27:45.208Z,23.60
2022-10-22T14:30:17.077Z,23.60
2022-10-22T14:32:44.409Z,23.60
2022-10-22T14:35:17.022Z,23.60
2022-10-22T14:37:43.825Z,23.60
2022-10-22T14:40:15.434Z,23.60
2022-10-22T14:42:44.422Z,23.60
2022-10-22T14:45:21.175Z,23.60
2022-10-22T14:47:48.835Z,23.60
2022-10-22T14:50:15.871Z,23.60
2022-10-22T14:52:43.611Z,23.60
2022-10-22T14:55:12.809Z,23.60
2022-10-22T14:57:40.260Z,23.60
2022-10-22T15:00:10.326Z,23.60
2022-10-22T15:02:37.109Z,23.60
2022-10-22T15:05:04.756Z,23.60
2022-10-22T15:07:31.656Z,23.60
2022-10-22T15:09:58.458Z,23.60
2022-10-22T15:12:25.281Z,23.60
2022-10-22T15:14:52.263Z,23.60
2022-10-22T15:17:19.247Z,23.60
2022-10-22T15:19:46.043Z,23.60
2022-10-22T15:22:13.922Z,23.60
2022-10-22T15:24:44.647Z,23.60
2022-10-22T15:27:13.814Z,23.60
2022-10-22T15:29:41.693Z,23.60
2022-10-22T15:32:12.523Z,23.60
2022-10-22T15:34:40.288Z,23.60
2022-10-22T15:37:10.675Z,23.60
2022-10-22T15:39:41.500Z,23.60
2022-10-22T15:42:09.800Z,23.60
2022-10-22T15:44:37.417Z,23.60
2022-10-22T15:47:06.323Z,23.60
2022-10-22T15:49:36.670Z,23.60
2022-10-22T15:52:04.585Z,23.60
2022-10-22T15:54:31.999Z,23.60
2022-10-22T15:57:00.237Z,23.60
2022-10-22T15:59:27.034Z,23.60
2022-10-22T16:01:54.166Z,23.50
2022-10-22T16:04:20.978Z,23.50
2022-10-22T16:06:50.329Z,23.50
2022-10-22T16:09:20.216Z,23.50
2022-10-22T16:11:47.428Z,23.40
2022-10-22T16:14:16.619Z,23.40
2022-10-22T16:16:45.816Z,23.40
2022-10-22T16:19:14.840Z,23.30
2022-10-22T16:21:41.785Z,23.30
2022-10-22T16:24:09.258Z,23.30
2022-10-22T16:26:36.536Z,23.30
2022-10-22T16:29:04.492Z,23.20
2022-10-22T16:31:31.484Z,23.20
2022-10-22T16:33:58.493Z,23.10
2022-10-22T16:36:25.348Z,23.10
2022-10-22T16:38:52.125Z,23.10
2022-10-22T16:41:23.842Z,23.00
2022-10-22T16:43:52.520Z,23.00
2022-10-22T16:46:21.092Z,22.90
2022-10-22T16:48:52.685Z,22.90
2022-10-22T16:51:24.935Z,22.80
2022-10-22T16:53:52.801Z,22.70
2022-10-22T16:56:20.450Z,22.70
2022-10-22T16:58:50.031Z,22.70
2022-10-22T17:01:18.404Z,22.60
2022-10-22T17:03:45.804Z,22.50
2022-10-22T17:06:13.431Z,22.50
2022-10-22T17:08:41.601Z,22.40
2022-10-22T17:11:17.073Z,22.40
2022-10-22T17:13:46.148Z,22.30
2022-10-22T17:16:15.599Z,22.30
2022-10-22T17:18:43.827Z,22.30
2022-10-22T17:21:12.305Z,22.20
2022-10-22T17:23:39.382Z,22.20
2022-10-22T17:26:08.159Z,22.10
2022-10-22T17:28:36.477Z,22.10
2022-10-22T17:31:07.580Z,22.00
2022-10-22T17:33:35.823Z,22.00
2022-10-22T17:36:07.122Z,21.90
2022-10-22T17:38:33.899Z,21.90
2022-10-22T17:41:04.095Z,21.80
2022-10-22T17:43:34.936Z,21.80
2022-10-22T17:46:10.808Z,21.80
2022-10-22T17:48:37.812Z,21.70
2022-10-22T17:51:08.851Z,21.60
2022-10-22T17:53:35.857Z,21.60
2022-10-22T17:56:06.999Z,21.50
2022-10-22T17:58:33.924Z,21.50
2022-10-22T18:01:00.826Z,21.40
2022-10-22T18:03:27.959Z,21.40
2022-10-22T18:05:55.333Z,21.40
2022-10-22T18:08:24.076Z,21.30
2022-10-22T18:10:50.888Z,21.30
2022-10-22T18:13:17.844Z,21.20
2022-10-22T18:15:44.612Z,21.20
2022-10-22T18:18:11.363Z,21.20
2022-10-22T18:20:38.153Z,21.10
2022-10-22T18:23:04.973Z,21.10
2022-10-22T18:25:31.930Z,21.10
2022-10-22T18:27:58.737Z,21.00
2022-10-22T18:30:25.498Z,21.00
2022-10-22T18:32:52.259Z,21.00
2022-10-22T18:35:19.011Z,21.00
2022-10-22T18:37:45.810Z,21.00
2022-10-22T18:40:14.737Z,21.00
2022-10-22T18:42:42.313Z,20.90
2022-10-22T18:45:10.567Z,20.90
2022-10-22T18:47:40.989Z,20.80
2022-10-22T18:50:09.353Z,20.80
2022-10-22T18:52:36.251Z,20.80
2022-10-22T18:55:03.464Z,20.80
2022-10-22T18:57:30.569Z,20.80
2022-10-22T18:59:59.452Z,20.80
2022-10-22T19:02:26.513Z,20.70
2022-10-22T19:04:53.279Z,20.70
2022-10-22T19:07:20.046Z,20.70
2022-10-22T19:09:46.815Z,20.60
2022-10-22T19:12:15.082Z,20.60
2022-10-22T19:15:10.197Z,20.50
2022-10-22T19:17:36.911Z,20.50
2022-10-22T19:20:04.457Z,20.50
2022-10-22T19:22:32.274Z,20.50
2022-10-22T19:24:59.145Z,20.50
2022-10-22T19:27:26.017Z,20.40
2022-10-22T19:29:52.867Z,20.40
2022-10-22T19:32:20.165Z,20.40
2022-10-22T19:34:47.323Z,20.30
2022-10-22T19:37:14.236Z,20.30
2022-10-22T19:39:41.643Z,20.30
2022-10-22T19:42:08.461Z,20.30
2022-10-22T19:44:35.685Z,20.30
2022-10-22T19:47:02.521Z,20.30
2022-10-22T19:49:29.371Z,20.30
2022-10-22T19:51:56.173Z,20.30
2022-10-22T19:54:23.039Z,20.30
2022-10-22T19:56:50.354Z,20.30
2022-10-22T19:59:20.704Z,20.30
2022-10-22T20:01:47.600Z,20.20
2022-10-22T20:04:16.696Z,20.20
2022-10-22T20:06:44.021Z,20.20
2022-10-22T20:09:13.503Z,20.20
2022-10-22T20:11:40.477Z,20.20
2022-10-22T20:14:07.309Z,20.10
2022-10-22T20:16:36.070Z,20.10
2022-10-22T20:19:06.028Z,20.10
2022-10-22T20:21:34.492Z,20.10
2022-10-22T20:24:01.834Z,20.10
2022-10-22T20:26:28.928Z,20.10
2022-10-22T20:28:57.678Z,20.10
2022-10-22T20:31:27.865Z,20.00
2022-10-22T20:33:57.876Z,20.00
2022-10-22T20:36:26.328Z,20.00
2022-10-22T20:38:53.160Z,20.00
2022-10-22T20:41:21.942Z,20.00
2022-10-22T20:43:50.415Z,20.00
2022-10-22T20:46:23.622Z,20.00
2022-10-22T20:48:55.830Z,20.00
2022-10-22T20:51:22.836Z,20.10
2022-10-22T20:53:49.920Z,20.10
2022-10-22T20:56:18.018Z,20.10
2022-10-22T20:58:48.954Z,20.10
2022-10-22T21:01:23.837Z,20.10
2022-10-22T21:03:53.536Z,20.10
2022-10-22T21:06:22.999Z,20.10
2022-10-22T21:08:51.356Z,20.10
2022-10-22T21:11:18.759Z,20.10
2022-10-22T21:13:45.553Z,20.10
2022-10-22T21:16:14.103Z,20.10
2022-10-22T21:18:41.062Z,20.10
2022-10-22T21:21:09.452Z,20.10
2022-10-22T21:23:36.698Z,20.10
2022-10-22T21:26:05.160Z,20.10
2022-10-22T21:28:36.869Z,20.10
2022-10-22T21:31:09.850Z,20.10
2022-10-22T21:33:38.918Z,20.10
2022-10-22T21:36:07.014Z,20.10
2022-10-22T21:38:34.828Z,20.10
2022-10-22T21:41:06.481Z,20.10
2022-10-22T21:43:33.879Z,20.10
2022-10-22T21:46:08.570Z,20.00
2022-10-22T21:48:36.935Z,20.10
2022-10-22T21:51:14.854Z,20.10
2022-10-22T21:53:42.412Z,20.10
2022-10-22T21:56:18.144Z,20.10
2022-10-22T21:58:45.205Z,20.00
2022-10-22T22:01:13.774Z,20.00
2022-10-22T22:03:46.538Z,20.00
2022-10-22T22:06:13.891Z,20.00
2022-10-22T22:08:41.493Z,20.00
2022-10-22T22:11:14.854Z,20.00
2022-10-22T22:13:42.017Z,20.00
2022-10-22T22:16:11.992Z,20.00
2022-10-22T22:18:40.143Z,20.00
2022-10-22T22:21:10.081Z,20.00
2022-10-22T22:23:38.620Z,20.00
2022-10-22T22:26:06.411Z,20.00
2022-10-22T22:28:34.003Z,20.00
2022-10-22T22:31:00.932Z,20.00
2022-10-22T22:33:27.944Z,20.10
2022-10-22T22:35:58.765Z,20.00
2022-10-22T22:38:25.595Z,20.10
2022-10-22T22:40:52.404Z,20.00
2022-10-22T22:43:19.225Z,20.10
2022-10-22T22:45:46.002Z,20.00
2022-10-22T22:48:12.761Z,20.10
2022-10-22T22:50:39.520Z,20.00
2022-10-22T22:53:06.333Z,20.00
2022-10-22T22:55:33.106Z,20.10
2022-10-22T22:57:59.873Z,20.00
2022-10-22T23:00:26.703Z,20.10
2022-10-22T23:02:56.633Z,20.10
2022-10-22T23:05:23.472Z,20.00
2022-10-22T23:07:50.247Z,20.00
2022-10-22T23:10:17.116Z,20.00
2022-10-22T23:12:44.366Z,20.00
2022-10-22T23:15:11.977Z,20.00
2022-10-22T23:17:38.850Z,20.00
2022-10-22T23:20:07.477Z,20.00
2022-10-22T23:22:34.326Z,20.00
2022-10-22T23:25:01.297Z,20.00
2022-10-22T23:27:28.109Z,20.00
2022-10-22T23:29:54.916Z,19.90
2022-10-22T23:32:21.688Z,19.90
2022-10-22T23:34:48.460Z,19.90
2022-10-22T23:37:15.481Z,19.90
2022-10-22T23:39:42.373Z,19.80
2022-10-22T23:42:09.177Z,19.80
2022-10-22T23:44:35.980Z,19.80
2022-10-22T23:47:02.787Z,19.80
2022-10-22T23:49:30.027Z,19.70
2022-10-22T23:51:56.816Z,19.70
2022-10-22T23:54:23.628Z,19.70
2022-10-22T23:56:50.419Z,19.70
2022-10-22T23:59:17.180Z,19.60
